Time;durP1;ratioP1;P1;durP2;ratioP2;P2;SDS_P1;SDS_P2;PMS_P1;PMS_P2;Temp;Humidity;BMP_temperature;BMP_pressure;BME280_temperature;BME280_humidity;BME280_pressure;Samples;Min_cycle;Max_cycle;Signal;HPM_P1;HPM_P2
2021/10/04 00:01:23;;;;;;;37.72;15.77;;;;;;;;;;5109870;28;20031;-67
2021/10/04 00:03:49;;;;;;;35.85;17.08;;;;;;;;;;5107549;28;20055;-67
2021/10/04 00:06:15;;;;;;;32.85;18.35;;;;;;;;;;5108610;28;20407;-68
2021/10/04 00:08:41;;;;;;;44.13;19.92;;;;;;;;;;5107976;28;20023;-67
2021/10/04 00:11:07;;;;;;;35.33;19.60;;;;;;;;;;5109467;28;20024;-68
2021/10/04 00:13:33;;;;;;;38.42;19.80;;;;;;;;;;5111408;28;20557;-68
2021/10/04 00:15:59;;;;;;;43.97;20.95;;;;;;;;;;5108899;28;20103;-67
2021/10/04 00:18:25;;;;;;;37.35;19.42;;;;;;;;;;5108544;28;20031;-68
2021/10/04 00:20:51;;;;;;;32.90;17.33;;;;;;;;;;5108117;28;20028;-67
2021/10/04 00:23:17;;;;;;;29.98;16.90;;;;;;;;;;5108309;28;20038;-67
2021/10/04 00:25:43;;;;;;;36.10;17.55;;;;;;;;;;5111617;28;20042;-67
2021/10/04 00:28:09;;;;;;;28.70;13.85;;;;;;;;;;5108736;28;20209;-67
2021/10/04 00:30:35;;;;;;;29.75;15.93;;;;;;;;;;5107353;28;20100;-68
2021/10/04 00:33:01;;;;;;;33.10;17.42;;;;;;;;;;5108091;28;20051;-67
2021/10/04 00:35:28;;;;;;;27.17;15.90;;;;;;;;;;5108271;28;20485;-67
2021/10/04 00:37:54;;;;;;;32.85;18.00;;;;;;;;;;5110858;28;20034;-67
2021/10/04 00:40:22;;;;;;;33.67;18.08;;;;;;;;;;5109134;28;20035;-68
2021/10/04 00:42:48;;;;;;;38.17;18.98;;;;;;;;;;5107776;28;20355;-67
2021/10/04 00:45:14;;;;;;;37.60;20.02;;;;;;;;;;5108114;28;20479;-68
2021/10/04 00:47:41;;;;;;;44.50;20.88;;;;;;;;;;5107825;28;20530;-67
2021/10/04 00:50:08;;;;;;;40.13;21.05;;;;;;;;;;5108755;28;20024;-68
2021/10/04 00:52:34;;;;;;;41.67;20.33;;;;;;;;;;5111487;28;20016;-67
2021/10/04 00:55:01;;;;;;;50.28;22.33;;;;;;;;;;5102408;28;20035;-67
2021/10/04 00:57:27;;;;;;;43.42;21.52;;;;;;;;;;5107164;28;20055;-67
2021/10/04 00:59:53;;;;;;;53.38;22.30;;;;;;;;;;5108276;28;20498;-67
2021/10/04 01:02:19;;;;;;;49.05;24.20;;;;;;;;;;5107853;28;20027;-67
2021/10/04 01:04:45;;;;;;;48.08;22.95;;;;;;;;;;5110396;28;20398;-67
2021/10/04 01:07:12;;;;;;;47.75;22.45;;;;;;;;;;5107468;28;20061;-67
2021/10/04 01:09:38;;;;;;;68.93;23.65;;;;;;;;;;5106726;28;20469;-67
2021/10/04 01:12:04;;;;;;;43.38;22.35;;;;;;;;;;5106766;28;20031;-67
2021/10/04 01:14:30;;;;;;;54.05;22.17;;;;;;;;;;5107792;28;20016;-67
2021/10/04 01:16:57;;;;;;;44.45;21.77;;;;;;;;;;5109656;28;20078;-67
2021/10/04 01:19:23;;;;;;;40.92;20.45;;;;;;;;;;5107681;28;20433;-67
2021/10/04 01:21:49;;;;;;;34.45;19.50;;;;;;;;;;5107621;28;20466;-67
2021/10/04 01:24:16;;;;;;;36.05;20.55;;;;;;;;;;5107405;28;20035;-67
2021/10/04 01:26:42;;;;;;;38.63;19.20;;;;;;;;;;5098823;28;20024;-67
2021/10/04 01:29:07;;;;;;;37.28;19.25;;;;;;;;;;5107512;28;20540;-66
2021/10/04 01:31:34;;;;;;;42.70;21.48;;;;;;;;;;5110630;28;20082;-66
2021/10/04 01:34:00;;;;;;;129.98;24.05;;;;;;;;;;5107743;28;20031;-66
2021/10/04 01:36:27;;;;;;;53.75;23.80;;;;;;;;;;5107404;28;20081;-67
2021/10/04 01:38:56;;;;;;;42.23;22.80;;;;;;;;;;5107839;28;20039;-67
2021/10/04 01:41:22;;;;;;;37.42;19.83;;;;;;;;;;5107546;28;20628;-66
2021/10/04 01:43:48;;;;;;;39.55;17.60;;;;;;;;;;5113529;28;20073;-67
2021/10/04 01:46:14;;;;;;;38.40;17.58;;;;;;;;;;5113478;28;20036;-67
2021/10/04 01:48:40;;;;;;;37.58;18.02;;;;;;;;;;5111538;28;20084;-67
2021/10/04 01:51:06;;;;;;;37.08;18.85;;;;;;;;;;5111294;28;20030;-66
2021/10/04 01:53:32;;;;;;;35.35;17.95;;;;;;;;;;5110431;28;20027;-67
2021/10/04 01:56:00;;;;;;;37.13;19.58;;;;;;;;;;5112459;28;20324;-66
2021/10/04 01:58:26;;;;;;;;;;;;;;;;;;5112857;28;20019;-67
2021/10/04 02:00:52;;;;;;;39.28;19.92;;;;;;;;;;5109853;28;20290;-67
2021/10/04 02:03:18;;;;;;;39.85;18.88;;;;;;;;;;5110066;28;20019;-67
2021/10/04 02:05:44;;;;;;;45.25;20.27;;;;;;;;;;5110958;28;20040;-67
2021/10/04 02:08:10;;;;;;;43.30;20.77;;;;;;;;;;5094847;28;20012;-67
2021/10/04 02:10:37;;;;;;;40.92;20.15;;;;;;;;;;5112237;28;20020;-67
2021/10/04 02:13:05;;;;;;;33.33;18.83;;;;;;;;;;5109670;28;20022;-67
2021/10/04 02:15:31;;;;;;;31.33;17.08;;;;;;;;;;5110299;28;20114;-67
2021/10/04 02:17:58;;;;;;;35.92;18.17;;;;;;;;;;5110048;28;20020;-67
2021/10/04 02:20:25;;;;;;;30.98;18.65;;;;;;;;;;5110309;28;20024;-67
2021/10/04 02:22:51;;;;;;;37.78;20.33;;;;;;;;;;5113243;28;20024;-67
2021/10/04 02:25:17;;;;;;;33.95;18.73;;;;;;;;;;5110672;28;20031;-67
2021/10/04 02:27:43;;;;;;;33.15;18.20;;;;;;;;;;5110364;28;20024;-67
2021/10/04 02:30:12;;;;;;;24.48;13.80;;;;;;;;;;5110269;28;20194;-67
2021/10/04 02:32:37;;;;;;;;;;;;;;;;;;5110030;28;20028;-67
2021/10/04 02:35:04;;;;;;;22.98;14.50;;;;;;;;;;5111046;28;20397;-66
2021/10/04 02:37:30;;;;;;;30.15;16.75;;;;;;;;;;5113185;28;20061;-67
2021/10/04 02:39:56;;;;;;;32.47;18.52;;;;;;;;;;5103279;28;20032;-67
2021/10/04 02:42:22;;;;;;;37.83;18.02;;;;;;;;;;5110089;28;20027;-67
2021/10/04 02:44:48;;;;;;;35.92;17.83;;;;;;;;;;5109337;28;20067;-67
2021/10/04 02:47:14;;;;;;;34.33;17.83;;;;;;;;;;5110481;28;20407;-67
2021/10/04 02:49:40;;;;;;;32.88;18.33;;;;;;;;;;5113630;28;20111;-66
2021/10/04 02:52:06;;;;;;;33.60;16.27;;;;;;;;;;5109816;28;20028;-66
2021/10/04 02:54:32;;;;;;;39.42;18.52;;;;;;;;;;5109139;28;20020;-67
2021/10/04 02:56:58;;;;;;;36.78;18.65;;;;;;;;;;5109603;28;20518;-66
2021/10/04 02:59:24;;;;;;;36.42;18.02;;;;;;;;;;5109826;28;20104;-67
2021/10/04 03:01:51;;;;;;;39.90;16.77;;;;;;;;;;5108190;28;20036;-66
2021/10/04 03:04:17;;;;;;;40.50;16.95;;;;;;;;;;5100299;28;20076;-66
2021/10/04 03:06:43;;;;;;;41.80;17.65;;;;;;;;;;5106596;28;20062;-66
2021/10/04 03:09:09;;;;;;;38.42;17.48;;;;;;;;;;5103672;28;20059;-66
2021/10/04 03:11:35;;;;;;;40.42;19.02;;;;;;;;;;5109924;28;20020;-66
2021/10/04 03:14:01;;;;;;;40.60;20.25;;;;;;;;;;5099122;28;21251;-66
2021/10/04 03:16:27;;;;;;;33.97;16.25;;;;;;;;;;5111300;28;20064;-66
2021/10/04 03:18:54;;;;;;;39.30;17.75;;;;;;;;;;5109155;28;20467;-66
2021/10/04 03:21:20;;;;;;;35.33;18.27;;;;;;;;;;5109312;28;20039;-66
2021/10/04 03:23:46;;;;;;;46.05;20.80;;;;;;;;;;5105437;28;20024;-66
2021/10/04 03:26:12;;;;;;;42.13;18.02;;;;;;;;;;5109957;28;20505;-66
2021/10/04 03:28:38;;;;;;;39.60;21.05;;;;;;;;;;5113081;28;20027;-66
2021/10/04 03:31:04;;;;;;;36.10;18.40;;;;;;;;;;5103913;28;20040;-67
2021/10/04 03:33:30;;;;;;;45.83;23.52;;;;;;;;;;5104206;28;20548;-66
2021/10/04 03:35:56;;;;;;;43.63;23.13;;;;;;;;;;5104308;28;20034;-66
2021/10/04 03:38:22;;;;;;;44.67;22.73;;;;;;;;;;5102303;28;20031;-66
2021/10/04 03:40:48;;;;;;;44.53;23.63;;;;;;;;;;5103368;28;20020;-66
2021/10/04 03:43:13;;;;;;;44.25;22.17;;;;;;;;;;5104375;28;20038;-66
2021/10/04 03:45:39;;;;;;;41.95;21.42;;;;;;;;;;5107735;28;20044;-66
2021/10/04 03:48:06;;;;;;;51.22;23.33;;;;;;;;;;5108794;28;20059;-66
2021/10/04 03:50:32;;;;;;;50.17;22.70;;;;;;;;;;5108624;28;20035;-66
2021/10/04 03:52:58;;;;;;;50.95;23.90;;;;;;;;;;5110801;28;20024;-67
2021/10/04 03:55:24;;;;;;;47.83;23.95;;;;;;;;;;5109295;28;20095;-66
2021/10/04 03:57:50;;;;;;;48.80;23.10;;;;;;;;;;5108234;28;20039;-66
2021/10/04 04:00:18;;;;;;;51.17;23.85;;;;;;;;;;5106738;28;20027;-66
2021/10/04 04:02:44;;;;;;;48.90;24.52;;;;;;;;;;5108482;28;20039;-66
2021/10/04 04:05:10;;;;;;;48.67;24.58;;;;;;;;;;5091721;28;20110;-66
2021/10/04 04:07:37;;;;;;;49.90;22.95;;;;;;;;;;5111455;28;20023;-66
2021/10/04 04:10:04;;;;;;;53.42;23.30;;;;;;;;;;5108768;28;20028;-66
2021/10/04 04:12:30;;;;;;;55.97;25.43;;;;;;;;;;5105321;28;20019;-66
2021/10/04 04:14:56;;;;;;;54.00;24.13;;;;;;;;;;5098826;28;20577;-67
2021/10/04 04:17:22;;;;;;;48.97;22.90;;;;;;;;;;5109083;28;20290;-66
2021/10/04 04:19:48;;;;;;;49.67;23.38;;;;;;;;;;5111292;28;20034;-66
2021/10/04 04:22:15;;;;;;;43.72;21.77;;;;;;;;;;5110832;28;20371;-66
2021/10/04 04:24:41;;;;;;;52.28;24.23;;;;;;;;;;5108572;28;20031;-66
2021/10/04 04:27:07;;;;;;;46.60;21.83;;;;;;;;;;5107164;28;20382;-66
2021/10/04 04:29:37;;;;;;;50.72;23.33;;;;;;;;;;5107660;28;20032;-66
2021/10/04 04:32:04;;;;;;;54.80;21.45;;;;;;;;;;5108007;28;20421;-66
2021/10/04 04:34:30;;;;;;;65.38;23.90;;;;;;;;;;5110453;28;20047;-66
2021/10/04 04:36:56;;;;;;;42.38;20.45;;;;;;;;;;5107312;28;20034;-66
2021/10/04 04:39:22;;;;;;;37.03;20.40;;;;;;;;;;5108698;28;20020;-68
2021/10/04 04:41:48;;;;;;;46.10;22.50;;;;;;;;;;5107470;28;20027;-68
2021/10/04 04:44:14;;;;;;;52.22;20.70;;;;;;;;;;5108112;28;20028;-66
2021/10/04 04:46:40;;;;;;;50.05;19.92;;;;;;;;;;5110391;28;20125;-68
2021/10/04 04:49:06;;;;;;;44.70;15.73;;;;;;;;;;5108235;28;20133;-68
2021/10/04 04:51:32;;;;;;;37.17;15.48;;;;;;;;;;5108350;28;20379;-70
2021/10/04 04:53:58;;;;;;;32.20;14.40;;;;;;;;;;5108147;28;20105;-69
2021/10/04 04:56:24;;;;;;;29.65;14.70;;;;;;;;;;5108131;28;20031;-70
2021/10/04 04:58:50;;;;;;;35.00;16.30;;;;;;;;;;5108996;28;20042;-71
2021/10/04 05:01:16;;;;;;;36.38;14.05;;;;;;;;;;5109541;28;20024;-71
2021/10/04 05:03:42;;;;;;;26.00;12.73;;;;;;;;;;5107350;28;20497;-71
2021/10/04 05:06:08;;;;;;;21.98;10.23;;;;;;;;;;5108037;28;20047;-71
2021/10/04 05:08:34;;;;;;;22.15;10.15;;;;;;;;;;5108140;28;20019;-72
2021/10/04 05:11:00;;;;;;;21.35;10.07;;;;;;;;;;5109947;28;20442;-71
2021/10/04 05:13:26;;;;;;;21.58;9.75;;;;;;;;;;5109314;28;20099;-71
2021/10/04 05:15:52;;;;;;;17.88;9.30;;;;;;;;;;5108544;28;20035;-71
2021/10/04 05:18:18;;;;;;;21.95;10.82;;;;;;;;;;5112154;28;20030;-71
2021/10/04 05:20:44;;;;;;;23.45;12.27;;;;;;;;;;5111876;28;20039;-70
2021/10/04 05:23:10;;;;;;;29.27;14.88;;;;;;;;;;5112397;28;20098;-70
2021/10/04 05:25:36;;;;;;;29.10;15.32;;;;;;;;;;5115344;28;20043;-70
2021/10/04 05:28:02;;;;;;;29.85;16.20;;;;;;;;;;5111755;28;20027;-70
2021/10/04 05:30:28;;;;;;;25.65;14.50;;;;;;;;;;5111274;28;20055;-70
2021/10/04 05:32:54;;;;;;;27.88;14.15;;;;;;;;;;5111572;28;20433;-69
2021/10/04 05:35:20;;;;;;;33.10;17.52;;;;;;;;;;5110784;28;20477;-69
2021/10/04 05:37:46;;;;;;;37.05;16.95;;;;;;;;;;5115071;28;20098;-70
2021/10/04 05:40:14;;;;;;;34.22;18.02;;;;;;;;;;5112219;28;20467;-70
2021/10/04 05:42:40;;;;;;;29.15;15.07;;;;;;;;;;5111608;28;20020;-71
2021/10/04 05:45:07;;;;;;;22.38;13.45;;;;;;;;;;5111750;28;20034;-71
2021/10/04 05:47:33;;;;;;;19.17;12.55;;;;;;;;;;5111521;28;20087;-71
2021/10/04 05:49:59;;;;;;;23.48;14.50;;;;;;;;;;5113453;28;20028;-71
2021/10/04 05:52:25;;;;;;;23.35;14.75;;;;;;;;;;5113444;28;20391;-71
2021/10/04 05:54:51;;;;;;;26.42;15.48;;;;;;;;;;5111086;28;20032;-71
2021/10/04 05:57:17;;;;;;;27.83;15.05;;;;;;;;;;5111637;28;20031;-71
2021/10/04 05:59:43;;;;;;;29.75;16.17;;;;;;;;;;5111043;28;20391;-71
2021/10/04 06:02:09;;;;;;;32.75;15.65;;;;;;;;;;5112142;28;20494;-71
2021/10/04 06:04:35;;;;;;;36.10;14.73;;;;;;;;;;5114130;28;20031;-71
2021/10/04 06:07:01;;;;;;;34.78;14.60;;;;;;;;;;5107934;28;20040;-71
2021/10/04 06:09:27;;;;;;;30.33;15.38;;;;;;;;;;5105922;28;20146;-71
2021/10/04 06:11:53;;;;;;;31.70;15.48;;;;;;;;;;5111331;28;20062;-71
2021/10/04 06:14:20;;;;;;;30.90;15.65;;;;;;;;;;5111090;28;20383;-71
2021/10/04 06:16:46;;;;;;;34.57;17.87;;;;;;;;;;5114070;28;20031;-71
2021/10/04 06:19:12;;;;;;;40.88;19.00;;;;;;;;;;5111692;28;20403;-71
2021/10/04 06:21:38;;;;;;;35.38;17.77;;;;;;;;;;5111290;28;20019;-71
2021/10/04 06:24:04;;;;;;;39.55;17.80;;;;;;;;;;5111044;28;20032;-71
2021/10/04 06:26:30;;;;;;;38.50;16.20;;;;;;;;;;5110593;28;20028;-70
2021/10/04 06:28:56;;;;;;;29.27;13.88;;;;;;;;;;5112633;28;20330;-71
2021/10/04 06:31:22;;;;;;;32.85;15.70;;;;;;;;;;5111682;28;20044;-71
2021/10/04 06:33:48;;;;;;;31.60;14.80;;;;;;;;;;5110653;28;20018;-71
2021/10/04 06:36:14;;;;;;;27.20;13.65;;;;;;;;;;5110981;28;20015;-73
2021/10/04 06:38:40;;;;;;;30.17;14.30;;;;;;;;;;5110850;28;20448;-65
2021/10/04 06:41:06;;;;;;;34.45;17.20;;;;;;;;;;5111483;28;20133;-63
2021/10/04 06:43:32;;;;;;;37.10;17.50;;;;;;;;;;5113620;28;20041;-64
2021/10/04 06:45:58;;;;;;;34.58;16.95;;;;;;;;;;5110007;28;20043;-63
2021/10/04 06:48:24;;;;;;;32.83;15.85;;;;;;;;;;5086653;28;20441;-62
2021/10/04 06:50:51;;;;;;;35.88;16.40;;;;;;;;;;5100179;28;20047;-63
2021/10/04 06:53:17;;;;;;;27.30;13.38;;;;;;;;;;5088369;28;20047;-62
2021/10/04 06:55:45;;;;;;;32.53;17.13;;;;;;;;;;5100134;28;20068;-63
2021/10/04 06:58:11;;;;;;;;;;;;;;;;;;5104005;28;20020;-62
2021/10/04 07:00:37;;;;;;;33.30;16.38;;;;;;;;;;5109453;28;19933;-63
2021/10/04 07:03:03;;;;;;;31.55;16.48;;;;;;;;;;5108242;28;20478;-63
2021/10/04 07:05:29;;;;;;;36.75;17.50;;;;;;;;;;5102159;28;20043;-64
2021/10/04 07:07:56;;;;;;;35.28;16.35;;;;;;;;;;5106230;28;20026;-64
2021/10/04 07:10:22;;;;;;;40.03;17.02;;;;;;;;;;5110912;28;20495;-64
2021/10/04 07:12:48;;;;;;;34.88;16.15;;;;;;;;;;5109056;28;20429;-62
2021/10/04 07:15:14;;;;;;;30.98;14.77;;;;;;;;;;5095679;28;20030;-62
2021/10/04 07:17:40;;;;;;;29.35;15.45;;;;;;;;;;5107982;28;20028;-62
2021/10/04 07:20:07;;;;;;;27.02;13.52;;;;;;;;;;5109863;28;20031;-63
2021/10/04 07:22:33;;;;;;;26.27;13.63;;;;;;;;;;5111881;28;20054;-64
2021/10/04 07:24:59;;;;;;;25.00;13.60;;;;;;;;;;5108642;28;20399;-62
2021/10/04 07:27:25;;;;;;;24.25;12.65;;;;;;;;;;5109640;28;20016;-62
2021/10/04 07:29:51;;;;;;;25.23;13.80;;;;;;;;;;5103257;28;20039;-63
2021/10/04 07:32:17;;;;;;;24.95;13.38;;;;;;;;;;5093508;28;20036;-62
2021/10/04 07:34:43;;;;;;;24.17;13.95;;;;;;;;;;5112009;28;20544;-62
2021/10/04 07:37:10;;;;;;;23.25;13.38;;;;;;;;;;5109366;28;20020;-62
2021/10/04 07:39:36;;;;;;;26.73;14.10;;;;;;;;;;5107922;28;20076;-62
2021/10/04 07:42:02;;;;;;;26.08;14.15;;;;;;;;;;5108911;28;20028;-63
2021/10/04 07:44:28;;;;;;;27.52;14.38;;;;;;;;;;5099909;28;20111;-62
2021/10/04 07:46:57;;;;;;;22.50;12.63;;;;;;;;;;5110994;28;20028;-62
2021/10/04 07:49:23;;;;;;;24.90;13.10;;;;;;;;;;5109493;28;20034;-62
2021/10/04 07:51:49;;;;;;;22.05;11.45;;;;;;;;;;5102686;28;20386;-64
2021/10/04 07:54:15;;;;;;;19.90;11.65;;;;;;;;;;5108488;28;20028;-64
2021/10/04 07:56:42;;;;;;;18.35;10.70;;;;;;;;;;5108136;28;20035;-63
2021/10/04 07:59:08;;;;;;;22.17;11.10;;;;;;;;;;5099197;28;20019;-63
2021/10/04 08:01:34;;;;;;;17.00;8.02;;;;;;;;;;5096840;28;20031;-64
2021/10/04 08:04:01;;;;;;;13.65;6.82;;;;;;;;;;5097450;28;20024;-64
2021/10/04 08:06:27;;;;;;;13.75;7.28;;;;;;;;;;5102623;28;20036;-64
2021/10/04 08:08:53;;;;;;;14.93;7.93;;;;;;;;;;5109795;28;20035;-64
2021/10/04 08:11:19;;;;;;;14.30;7.05;;;;;;;;;;5104437;28;20103;-65
2021/10/04 08:13:46;;;;;;;20.80;8.25;;;;;;;;;;5110688;28;20065;-64
2021/10/04 08:16:12;;;;;;;19.75;8.02;;;;;;;;;;5109140;28;20497;-63
2021/10/04 08:18:38;;;;;;;21.17;7.85;;;;;;;;;;5102545;28;20028;-63
2021/10/04 08:21:04;;;;;;;18.75;8.90;;;;;;;;;;5099110;28;20028;-63
2021/10/04 08:23:30;;;;;;;45.25;8.85;;;;;;;;;;5107764;28;20032;-65
2021/10/04 08:25:56;;;;;;;28.48;9.02;;;;;;;;;;5110044;28;20414;-62
2021/10/04 08:28:22;;;;;;;22.23;9.50;;;;;;;;;;5108176;28;20019;-62
2021/10/04 08:30:48;;;;;;;21.77;9.80;;;;;;;;;;5105873;28;20460;-64
2021/10/04 08:33:15;;;;;;;20.17;9.93;;;;;;;;;;5108336;28;20547;-62
2021/10/04 08:35:41;;;;;;;16.08;8.43;;;;;;;;;;5107242;28;20038;-64
2021/10/04 08:38:07;;;;;;;18.10;9.13;;;;;;;;;;5108104;28;20067;-63
2021/10/04 08:40:33;;;;;;;15.25;7.07;;;;;;;;;;5110064;28;20047;-64
2021/10/04 08:42:59;;;;;;;14.80;7.90;;;;;;;;;;5107727;28;20027;-64
2021/10/04 08:45:27;;;;;;;15.90;7.55;;;;;;;;;;5107705;28;20076;-64
2021/10/04 08:47:58;;;;;;;14.15;5.53;;;;;;;;;;5107742;28;20074;-62
2021/10/04 08:50:24;;;;;;;11.52;6.25;;;;;;;;;;5093665;28;20028;-65
2021/10/04 08:52:50;;;;;;;11.95;6.60;;;;;;;;;;5112973;28;20064;-64
2021/10/04 08:55:18;;;;;;;15.35;7.13;;;;;;;;;;5114227;28;20062;-64
2021/10/04 08:57:44;;;;;;;13.38;7.22;;;;;;;;;;5114547;27;20028;-64
2021/10/04 09:00:11;;;;;;;12.52;8.02;;;;;;;;;;5103061;28;20036;-64
2021/10/04 09:02:37;;;;;;;14.88;7.43;;;;;;;;;;5095957;28;20072;-62
2021/10/04 09:05:08;;;;;;;15.75;8.13;;;;;;;;;;5115613;27;20065;-62
2021/10/04 09:07:38;;;;;;;15.85;8.07;;;;;;;;;;5117507;28;20604;-63
2021/10/04 09:10:06;;;;;;;14.40;8.02;;;;;;;;;;5115731;27;20038;-63
2021/10/04 09:12:43;;;;;;;13.18;8.32;;;;;;;;;;5114985;27;20490;-63
2021/10/04 09:15:19;;;;;;;17.67;8.80;;;;;;;;;;5114406;28;20080;-63
2021/10/04 09:17:45;;;;;;;17.63;8.52;;;;;;;;;;5112967;28;20149;-63
2021/10/04 09:20:12;;;;;;;16.67;8.73;;;;;;;;;;5112881;28;20114;-63
2021/10/04 09:22:38;;;;;;;14.48;9.20;;;;;;;;;;5102202;28;20113;-63
2021/10/04 09:25:06;;;;;;;16.85;9.15;;;;;;;;;;5114011;28;20032;-63
2021/10/04 09:27:36;;;;;;;22.67;10.10;;;;;;;;;;5108455;28;20020;-63
2021/10/04 09:30:10;;;;;;;16.65;8.60;;;;;;;;;;5113415;28;20130;-63
2021/10/04 09:32:47;;;;;;;15.93;8.50;;;;;;;;;;5114906;27;20336;-63
2021/10/04 09:35:13;;;;;;;18.03;9.90;;;;;;;;;;5098967;28;20031;-63
2021/10/04 09:37:41;;;;;;;18.35;9.65;;;;;;;;;;5113844;28;20533;-63
2021/10/04 09:40:24;;;;;;;14.90;9.27;;;;;;;;;;5115498;28;20015;-63
2021/10/04 09:42:50;;;;;;;18.20;10.00;;;;;;;;;;5115633;28;20487;-63
2021/10/04 09:45:16;;;;;;;18.77;10.27;;;;;;;;;;5114617;28;20141;-63
2021/10/04 09:47:43;;;;;;;17.75;9.50;;;;;;;;;;5114257;28;20024;-63
2021/10/04 09:50:10;;;;;;;19.93;11.33;;;;;;;;;;5114336;27;20085;-63
2021/10/04 09:52:47;;;;;;;19.87;10.87;;;;;;;;;;5117079;28;20487;-63
2021/10/04 09:55:23;;;;;;;20.30;10.63;;;;;;;;;;5111776;28;20348;-63
2021/10/04 09:57:59;;;;;;;21.67;10.50;;;;;;;;;;5107888;28;20062;-63
2021/10/04 10:00:26;;;;;;;16.27;9.93;;;;;;;;;;5108540;28;20024;-68
2021/10/04 10:02:56;;;;;;;20.42;10.20;;;;;;;;;;5102747;28;20024;-65
2021/10/04 10:05:26;;;;;;;18.33;10.55;;;;;;;;;;5104568;28;20040;-65
2021/10/04 10:07:52;;;;;;;17.40;10.27;;;;;;;;;;5102790;28;20039;-65
2021/10/04 10:10:19;;;;;;;16.65;9.55;;;;;;;;;;5102136;28;20123;-63
2021/10/04 10:12:45;;;;;;;16.67;8.88;;;;;;;;;;5107299;28;20026;-63
2021/10/04 10:15:37;;;;;;;19.40;10.00;;;;;;;;;;5110486;28;20027;-63
2021/10/04 10:18:12;;;;;;;21.52;13.25;;;;;;;;;;5107013;28;20467;-63
2021/10/04 10:20:39;;;;;;;26.35;14.15;;;;;;;;;;5108383;28;20089;-63
2021/10/04 10:23:05;;;;;;;24.73;13.73;;;;;;;;;;5093512;28;20493;-63
2021/10/04 10:25:31;;;;;;;22.83;12.05;;;;;;;;;;5112852;28;20040;-63
2021/10/04 10:27:57;;;;;;;30.83;12.68;;;;;;;;;;5103552;28;20024;-63
2021/10/04 10:30:24;;;;;;;26.60;11.52;;;;;;;;;;5098903;28;20048;-63
2021/10/04 10:32:51;;;;;;;19.73;10.60;;;;;;;;;;5098278;28;20469;-64
2021/10/04 10:35:17;;;;;;;16.35;9.45;;;;;;;;;;5090528;28;20027;-63
2021/10/04 10:37:51;;;;;;;17.25;9.43;;;;;;;;;;5090346;28;20119;-63
2021/10/04 10:40:19;;;;;;;17.35;9.93;;;;;;;;;;5098329;28;20387;-65
2021/10/04 10:42:59;;;;;;;19.35;11.13;;;;;;;;;;5101801;28;20024;-64
2021/10/04 10:45:26;;;;;;;22.15;11.35;;;;;;;;;;5099248;28;20500;-64
2021/10/04 10:47:53;;;;;;;21.58;11.32;;;;;;;;;;5097011;28;20031;-63
2021/10/04 10:50:27;;;;;;;23.33;11.40;;;;;;;;;;5107674;28;20031;-64
2021/10/04 10:52:59;;;;;;;20.23;12.20;;;;;;;;;;5106733;28;20096;-64
2021/10/04 10:55:25;;;;;;;20.65;11.10;;;;;;;;;;5110847;28;20095;-62
2021/10/04 10:57:51;;;;;;;29.10;11.23;;;;;;;;;;5108966;28;20118;-67
2021/10/04 11:00:21;;;;;;;17.88;10.27;;;;;;;;;;5082147;28;20024;-66
2021/10/04 11:03:05;;;;;;;20.77;10.52;;;;;;;;;;5096669;28;20028;-67
2021/10/04 11:05:43;;;;;;;20.25;11.07;;;;;;;;;;5095522;28;20081;-65
2021/10/04 11:08:09;;;;;;;;;;;;;;;;;;5108555;28;20391;-62
2021/10/04 11:10:55;;;;;;;20.00;11.73;;;;;;;;;;5104402;28;19904;-67
2021/10/04 11:13:25;;;;;;;28.90;18.67;;;;;;;;;;5108748;28;20088;-69
2021/10/04 11:15:54;;;;;;;21.30;9.57;;;;;;;;;;5108583;28;20035;-69
2021/10/04 11:18:21;;;;;;;22.80;10.45;;;;;;;;;;5106915;28;20046;-64
2021/10/04 11:20:48;;;;;;;22.17;11.50;;;;;;;;;;5106888;28;20467;-64
2021/10/04 11:23:14;;;;;;;21.88;9.82;;;;;;;;;;5080160;28;20027;-67
2021/10/04 11:25:43;;;;;;;15.32;9.38;;;;;;;;;;5112053;28;20057;-67
2021/10/04 11:28:10;;;;;;;17.80;10.30;;;;;;;;;;5109627;28;20394;-66
2021/10/04 11:30:55;;;;;;;19.23;9.75;;;;;;;;;;5109271;28;20043;-67
2021/10/04 11:33:21;;;;;;;14.38;9.05;;;;;;;;;;5102589;28;20031;-66
2021/10/04 11:35:57;;;;;;;16.27;9.43;;;;;;;;;;5109258;28;20052;-64
2021/10/04 11:38:23;;;;;;;19.30;9.77;;;;;;;;;;5110518;28;20528;-65
2021/10/04 11:40:49;;;;;;;17.45;9.10;;;;;;;;;;5111156;28;20023;-67
2021/10/04 11:43:15;;;;;;;18.10;9.20;;;;;;;;;;5110850;28;20027;-68
2021/10/04 11:45:41;;;;;;;21.13;9.73;;;;;;;;;;5108855;28;20039;-69
2021/10/04 11:48:07;;;;;;;15.52;9.38;;;;;;;;;;5105099;28;20506;-69
2021/10/04 11:50:47;;;;;;;17.73;9.02;;;;;;;;;;5093379;28;20039;-67
2021/10/04 11:53:14;;;;;;;14.63;8.55;;;;;;;;;;5092277;28;20511;-68
2021/10/04 11:55:40;;;;;;;17.17;9.45;;;;;;;;;;5108399;28;20026;-63
2021/10/04 11:58:15;;;;;;;95.97;35.78;;;;;;;;;;5108634;28;20034;-65
2021/10/04 12:00:47;;;;;;;16.30;8.85;;;;;;;;;;5107847;28;20023;-66
2021/10/04 12:03:23;;;;;;;31.25;16.02;;;;;;;;;;5106102;28;20401;-70
2021/10/04 12:05:53;;;;;;;15.85;8.27;;;;;;;;;;5100924;28;20067;-63
2021/10/04 12:08:19;;;;;;;22.38;10.70;;;;;;;;;;5105129;28;20030;-67
2021/10/04 12:10:48;;;;;;;20.08;9.75;;;;;;;;;;5091413;28;20035;-67
2021/10/04 12:13:16;;;;;;;20.05;10.00;;;;;;;;;;5093326;28;20024;-67
2021/10/04 12:15:43;;;;;;;22.67;9.55;;;;;;;;;;5103377;28;20416;-65
2021/10/04 12:18:16;;;;;;;21.20;8.50;;;;;;;;;;5107670;28;20016;-65
2021/10/04 12:20:42;;;;;;;18.02;9.60;;;;;;;;;;5096840;28;20390;-65
2021/10/04 12:23:35;;;;;;;24.45;9.82;;;;;;;;;;5090915;28;20093;-65
2021/10/04 12:26:07;;;;;;;89.13;26.00;;;;;;;;;;5106272;28;20499;-65
2021/10/04 12:28:42;;;;;;;20.17;10.05;;;;;;;;;;5101247;28;20022;-65
2021/10/04 12:31:08;;;;;;;24.80;10.73;;;;;;;;;;5103983;28;21132;-64
2021/10/04 12:33:45;;;;;;;19.30;10.50;;;;;;;;;;5108346;28;20058;-64
2021/10/04 12:36:12;;;;;;;16.15;9.80;;;;;;;;;;5100494;28;20112;-64
2021/10/04 12:38:49;;;;;;;14.00;7.93;;;;;;;;;;5105111;28;20497;-63
2021/10/04 12:41:15;;;;;;;18.63;8.68;;;;;;;;;;5086667;28;20073;-65
2021/10/04 12:43:41;;;;;;;16.15;8.88;;;;;;;;;;5103088;28;20027;-64
2021/10/04 12:46:10;;;;;;;48.95;21.40;;;;;;;;;;5106286;28;20243;-64
2021/10/04 12:48:37;;;;;;;15.63;8.45;;;;;;;;;;5107365;28;20428;-64
2021/10/04 12:51:11;;;;;;;17.60;8.00;;;;;;;;;;5107796;28;20486;-64
2021/10/04 12:53:58;;;;;;;15.68;8.45;;;;;;;;;;5108023;28;20023;-64
2021/10/04 12:56:27;;;;;;;22.23;10.25;;;;;;;;;;5093322;28;20031;-65
2021/10/04 12:59:01;;;;;;;15.77;8.93;;;;;;;;;;5110062;28;20119;-65
2021/10/04 13:01:27;;;;;;;16.30;8.80;;;;;;;;;;5105055;28;20386;-65
2021/10/04 13:03:53;;;;;;;12.35;7.70;;;;;;;;;;5105354;28;20031;-64
2021/10/04 13:06:19;;;;;;;16.83;8.32;;;;;;;;;;5107709;28;20028;-64
2021/10/04 13:08:45;;;;;;;15.60;8.60;;;;;;;;;;5102150;28;20020;-64
2021/10/04 13:11:11;;;;;;;14.73;7.75;;;;;;;;;;5085210;28;20081;-64
2021/10/04 13:13:37;;;;;;;12.82;7.20;;;;;;;;;;5091047;28;20035;-64
2021/10/04 13:16:09;;;;;;;13.65;7.60;;;;;;;;;;5103134;28;20028;-64
2021/10/04 13:18:35;;;;;;;12.82;7.32;;;;;;;;;;5102856;28;20119;-64
2021/10/04 13:21:01;;;;;;;14.40;7.63;;;;;;;;;;5104330;28;20040;-64
2021/10/04 13:23:27;;;;;;;11.27;7.18;;;;;;;;;;5100098;28;20807;-65
2021/10/04 13:25:55;;;;;;;12.68;8.02;;;;;;;;;;5079702;28;20337;-64
2021/10/04 13:28:21;;;;;;;14.50;7.68;;;;;;;;;;5099137;28;20036;-64
2021/10/04 13:30:47;;;;;;;11.85;7.70;;;;;;;;;;5103063;28;20520;-64
2021/10/04 13:33:13;;;;;;;14.65;7.28;;;;;;;;;;5105453;28;20072;-64
2021/10/04 13:35:39;;;;;;;15.00;7.10;;;;;;;;;;5101901;28;20035;-64
2021/10/04 13:38:05;;;;;;;16.42;8.25;;;;;;;;;;5104156;28;20023;-64
2021/10/04 13:40:33;;;;;;;22.15;8.45;;;;;;;;;;5104235;28;20023;-64
2021/10/04 13:42:59;;;;;;;19.50;9.05;;;;;;;;;;5108235;28;20038;-64
2021/10/04 13:45:25;;;;;;;19.65;8.75;;;;;;;;;;5106384;28;20469;-64
2021/10/04 13:47:51;;;;;;;13.50;7.80;;;;;;;;;;5106093;28;20099;-64
2021/10/04 13:50:19;;;;;;;24.58;10.07;;;;;;;;;;5106713;28;20051;-64
2021/10/04 13:52:45;;;;;;;14.07;7.10;;;;;;;;;;5107326;28;20016;-64
2021/10/04 13:55:11;;;;;;;14.70;7.78;;;;;;;;;;5107331;28;20032;-64
2021/10/04 13:57:38;;;;;;;12.85;7.10;;;;;;;;;;5107180;28;20128;-64
2021/10/04 14:00:05;;;;;;;16.98;7.95;;;;;;;;;;5101026;28;20031;-64
2021/10/04 14:02:31;;;;;;;12.97;7.53;;;;;;;;;;5106221;28;20055;-64
2021/10/04 14:04:57;;;;;;;11.20;6.40;;;;;;;;;;5112418;28;20081;-64
2021/10/04 14:07:23;;;;;;;15.57;7.60;;;;;;;;;;5111401;27;20024;-64
2021/10/04 14:09:49;;;;;;;15.30;8.02;;;;;;;;;;5110776;28;20046;-64
2021/10/04 14:12:15;;;;;;;13.85;7.55;;;;;;;;;;5111229;28;20024;-64
2021/10/04 14:14:41;;;;;;;13.75;7.05;;;;;;;;;;5110980;28;20034;-64
2021/10/04 14:17:07;;;;;;;16.73;8.25;;;;;;;;;;5103759;28;20383;-64
2021/10/04 14:19:33;;;;;;;16.33;8.40;;;;;;;;;;5113408;28;20034;-63
2021/10/04 14:21:59;;;;;;;16.95;9.40;;;;;;;;;;5106874;28;20386;-63
2021/10/04 14:24:25;;;;;;;18.20;8.90;;;;;;;;;;5109186;28;20028;-64